createdAt,value
2018-05-12T00:02:00.527Z,8.93
2018-05-12T00:04:27.073Z,9.37
2018-05-12T00:06:53.667Z,9.40
2018-05-12T00:09:20.224Z,9.45
2018-05-12T00:11:46.817Z,9.80
2018-05-12T00:14:13.445Z,9.45
2018-05-12T00:16:39.968Z,9.80
2018-05-12T00:19:06.552Z,9.65
2018-05-12T00:21:33.096Z,9.10
2018-05-12T00:23:59.655Z,9.70
2018-05-12T00:26:26.240Z,9.30
2018-05-12T00:28:52.794Z,9.18
2018-05-12T00:31:19.405Z,9.57
2018-05-12T00:33:46.316Z,10.15
2018-05-12T00:36:12.883Z,9.20
2018-05-12T00:38:39.480Z,9.70
2018-05-12T00:41:06.036Z,10.20
2018-05-12T00:43:32.677Z,10.32
2018-05-12T00:45:59.216Z,11.30
2018-05-12T00:48:25.851Z,11.40
2018-05-12T00:50:52.827Z,11.40
2018-05-12T00:53:19.376Z,12.00
2018-05-12T00:55:45.960Z,12.32
2018-05-12T00:58:12.876Z,11.80
2018-05-12T01:00:39.465Z,11.75
2018-05-12T01:03:06.436Z,11.73
2018-05-12T01:05:33.340Z,12.55
2018-05-12T01:07:59.920Z,11.48
2018-05-12T01:10:26.468Z,12.35
2018-05-12T01:12:53.035Z,12.77
2018-05-12T01:15:20.021Z,13.10
2018-05-12T01:17:46.613Z,11.98
2018-05-12T01:20:13.635Z,13.02
2018-05-12T01:22:40.199Z,13.07
2018-05-12T01:25:06.789Z,13.93
2018-05-12T01:27:33.747Z,12.02
2018-05-12T01:30:00.672Z,12.05
2018-05-12T01:32:27.247Z,13.30
2018-05-12T01:34:54.172Z,12.30
2018-05-12T01:37:21.156Z,11.50
2018-05-12T01:39:48.145Z,12.30
2018-05-12T01:42:14.708Z,13.10
2018-05-12T01:44:41.294Z,12.40
2018-05-12T01:47:07.869Z,12.10
2018-05-12T01:49:34.856Z,14.00
2018-05-12T01:52:01.440Z,14.50
2018-05-12T01:54:27.981Z,13.20
2018-05-12T01:56:54.556Z,13.13
2018-05-12T01:59:21.488Z,13.27
2018-05-12T02:01:48.085Z,13.32
2018-05-12T02:04:14.668Z,12.77
2018-05-12T02:06:41.231Z,13.38
2018-05-12T02:09:07.827Z,12.93
2018-05-12T02:11:34.442Z,13.75
2018-05-12T02:14:00.996Z,12.90
2018-05-12T02:16:27.939Z,12.27
2018-05-12T02:18:54.512Z,13.10
2018-05-12T02:21:21.460Z,12.60
2018-05-12T02:23:48.389Z,12.32
2018-05-12T02:26:14.989Z,12.60
2018-05-12T02:28:41.570Z,12.70
2018-05-12T02:31:08.131Z,11.50
2018-05-12T02:33:34.720Z,11.55
2018-05-12T02:36:01.629Z,12.27
2018-05-12T02:38:28.180Z,13.00
2018-05-12T02:40:55.129Z,11.82
2018-05-12T02:43:21.722Z,12.73
2018-05-12T02:45:48.648Z,12.77
2018-05-12T02:48:15.236Z,14.65
2018-05-12T02:50:41.840Z,13.40
2018-05-12T02:53:08.392Z,13.20
2018-05-12T02:55:34.984Z,12.37
2018-05-12T02:58:01.528Z,12.02
2018-05-12T03:00:28.111Z,11.45
2018-05-12T03:02:54.689Z,11.00
2018-05-12T03:05:21.251Z,11.02
2018-05-12T03:07:47.861Z,12.43
2018-05-12T03:10:14.404Z,10.75
2018-05-12T03:12:40.989Z,10.70
2018-05-12T03:15:07.577Z,11.60
2018-05-12T03:17:34.108Z,10.73
2018-05-12T03:20:00.689Z,10.30
2018-05-12T03:22:27.226Z,10.30
2018-05-12T03:24:53.823Z,11.50
2018-05-12T03:27:20.412Z,11.12
2018-05-12T03:29:47.009Z,10.77
2018-05-12T03:32:13.579Z,10.35
2018-05-12T03:34:40.545Z,10.80
2018-05-12T03:37:07.528Z,10.02
2018-05-12T03:39:34.158Z,10.32
2018-05-12T03:42:00.704Z,9.95
2018-05-12T03:44:27.292Z,10.68
2018-05-12T03:46:53.852Z,9.73
2018-05-12T03:49:20.441Z,9.90
2018-05-12T03:51:47.937Z,9.38
2018-05-12T03:54:14.475Z,9.35
2018-05-12T03:56:41.056Z,10.20
2018-05-12T03:59:07.618Z,8.77
2018-05-12T04:01:34.209Z,7.68
2018-05-12T04:04:00.796Z,7.75
2018-05-12T04:06:39.532Z,8.20
2018-05-12T04:09:18.392Z,7.85
2018-05-12T04:11:57.685Z,7.20
2018-05-12T04:14:24.272Z,8.80
2018-05-12T04:16:50.822Z,8.95
2018-05-12T04:19:17.424Z,8.98
2018-05-12T04:21:43.966Z,6.97
2018-05-12T04:24:10.617Z,7.00
2018-05-12T04:26:37.205Z,6.60
2018-05-12T04:29:03.752Z,5.80
2018-05-12T04:31:30.328Z,5.90
2018-05-12T04:33:56.860Z,6.20
2018-05-12T04:36:23.443Z,5.57
2018-05-12T04:38:50.428Z,5.70
2018-05-12T04:41:17.012Z,5.90
2018-05-12T04:43:43.596Z,5.97
2018-05-12T04:46:10.525Z,5.28
2018-05-12T04:48:37.106Z,5.30
2018-05-12T04:51:03.728Z,5.12
2018-05-12T04:53:30.672Z,5.10
2018-05-12T04:55:57.253Z,5.17
2018-05-12T04:58:24.157Z,5.30
2018-05-12T05:00:50.753Z,4.30
2018-05-12T05:03:17.718Z,4.30
2018-05-12T05:05:44.265Z,4.45
2018-05-12T05:08:10.866Z,4.60
2018-05-12T05:10:37.419Z,4.43
2018-05-12T05:13:04.002Z,3.65
2018-05-12T05:15:31.023Z,4.20
2018-05-12T05:17:57.567Z,4.07
2018-05-12T05:20:24.136Z,4.40
2018-05-12T05:22:50.679Z,4.30
2018-05-12T05:25:17.260Z,4.15
2018-05-12T05:27:43.848Z,4.20
2018-05-12T05:30:10.418Z,4.18
2018-05-12T05:32:36.987Z,4.20
2018-05-12T05:35:03.934Z,4.00
2018-05-12T05:37:30.884Z,4.28
2018-05-12T05:39:57.468Z,3.75
2018-05-12T05:42:24.010Z,4.18
2018-05-12T05:44:50.602Z,4.28
2018-05-12T05:47:17.155Z,4.00
2018-05-12T05:49:43.728Z,4.60
2018-05-12T05:52:10.344Z,4.20
2018-05-12T05:54:36.879Z,5.20
2018-05-12T05:57:03.480Z,4.78
2018-05-12T05:59:30.433Z,4.70
2018-05-12T06:01:57.018Z,4.70
2018-05-12T06:04:23.588Z,4.80
2018-05-12T06:06:50.138Z,4.30
2018-05-12T06:09:16.733Z,4.50
2018-05-12T06:11:43.685Z,4.70
2018-05-12T06:14:10.625Z,4.70
2018-05-12T06:16:37.205Z,4.40
2018-05-12T06:19:03.788Z,3.80
2018-05-12T06:21:31.007Z,4.10
2018-05-12T06:23:57.960Z,4.60
2018-05-12T06:26:24.869Z,5.00
2018-05-12T06:28:51.539Z,4.70
2018-05-12T06:31:18.098Z,5.00
2018-05-12T06:33:44.671Z,4.30
2018-05-12T06:36:11.246Z,4.97
2018-05-12T06:38:37.772Z,4.55
2018-05-12T06:41:04.364Z,4.50
2018-05-12T06:43:30.917Z,4.00
2018-05-12T06:45:57.527Z,4.32
2018-05-12T06:48:24.115Z,4.50
2018-05-12T06:50:50.749Z,4.50
2018-05-12T06:53:17.360Z,4.00
2018-05-12T06:55:43.896Z,4.90
2018-05-12T06:58:10.853Z,5.10
2018-05-12T07:00:37.420Z,4.80
2018-05-12T07:03:04.032Z,4.90
2018-05-12T07:05:30.976Z,3.60
2018-05-12T07:07:57.520Z,4.82
2018-05-12T07:10:24.090Z,4.15
2018-05-12T07:12:51.420Z,3.67
2018-05-12T07:15:17.978Z,3.93
2018-05-12T07:17:44.580Z,3.40
2018-05-12T07:20:11.120Z,3.60
2018-05-12T07:22:37.701Z,3.92
2018-05-12T07:25:04.337Z,3.17
2018-05-12T07:27:30.881Z,4.03
2018-05-12T07:29:57.488Z,4.43
2018-05-12T07:32:24.403Z,4.57
2018-05-12T07:34:51.008Z,5.00
2018-05-12T07:37:17.964Z,6.37
2018-05-12T07:39:44.517Z,6.03
2018-05-12T07:42:11.092Z,6.00
2018-05-12T07:44:37.641Z,6.22
2018-05-12T07:47:04.264Z,6.78
2018-05-12T07:49:30.861Z,7.43
2018-05-12T07:51:57.432Z,8.00
2018-05-12T07:54:24.000Z,7.30
2018-05-12T07:56:50.610Z,6.60
2018-05-12T07:59:17.191Z,7.00
2018-05-12T08:01:44.167Z,7.40
2018-05-12T08:04:10.716Z,9.18
2018-05-12T08:06:37.293Z,10.00
2018-05-12T08:09:03.903Z,9.88
2018-05-12T08:11:30.484Z,9.50
2018-05-12T08:13:57.068Z,14.10
2018-05-12T08:16:23.687Z,17.48
2018-05-12T08:18:50.232Z,13.90
2018-05-12T08:21:16.798Z,11.03
2018-05-12T08:23:43.389Z,11.30
2018-05-12T08:26:10.006Z,13.52
2018-05-12T08:28:36.937Z,13.60
2018-05-12T08:31:03.556Z,12.25
2018-05-12T08:33:30.115Z,12.50
2018-05-12T08:35:56.681Z,13.35
2018-05-12T08:38:23.300Z,14.60
2018-05-12T08:40:49.852Z,11.37
2018-05-12T08:43:16.429Z,11.70
2018-05-12T08:45:42.981Z,12.32
2018-05-12T08:48:09.594Z,12.10
2018-05-12T08:50:36.172Z,13.65
2018-05-12T08:53:02.780Z,13.30
2018-05-12T08:55:39.538Z,11.05
2018-05-12T08:58:06.448Z,11.30
2018-05-12T09:00:33.032Z,10.57
2018-05-12T09:02:59.617Z,10.43
2018-05-12T09:05:26.160Z,12.02
2018-05-12T09:07:52.745Z,12.90
2018-05-12T09:10:19.306Z,13.07
2018-05-12T09:12:45.901Z,10.65
2018-05-12T09:15:12.475Z,13.50
2018-05-12T09:17:39.021Z,15.10
2018-05-12T09:20:05.592Z,15.00
2018-05-12T09:22:32.180Z,15.18
2018-05-12T09:24:59.102Z,13.88
2018-05-12T09:27:25.688Z,15.70
2018-05-12T09:29:52.606Z,13.60
2018-05-12T09:32:19.193Z,14.50
2018-05-12T09:34:45.760Z,13.98
2018-05-12T09:37:12.338Z,16.23
2018-05-12T09:39:38.912Z,14.02
2018-05-12T09:42:05.832Z,12.77
2018-05-12T09:44:32.416Z,12.18
2018-05-12T09:46:59.011Z,14.17
2018-05-12T09:49:25.573Z,14.75
2018-05-12T09:51:52.208Z,12.35
2018-05-12T09:54:18.851Z,13.05
2018-05-12T09:56:45.505Z,11.20
2018-05-12T09:59:12.127Z,10.05
2018-05-12T10:01:38.700Z,11.27
2018-05-12T10:04:05.467Z,10.57
2018-05-12T10:06:32.157Z,9.20
2018-05-12T10:08:58.723Z,12.40
2018-05-12T10:11:25.312Z,12.32
2018-05-12T10:13:51.844Z,12.15
2018-05-12T10:16:18.780Z,13.02
2018-05-12T10:18:45.376Z,9.80
2018-05-12T10:21:11.991Z,9.90
2018-05-12T10:23:38.603Z,9.88
2018-05-12T10:26:05.604Z,10.55
2018-05-12T10:28:32.213Z,9.70
2018-05-12T10:30:59.137Z,10.00
2018-05-12T10:33:25.728Z,11.77
2018-05-12T10:35:52.697Z,10.80
2018-05-12T10:38:19.272Z,11.40
2018-05-12T10:40:45.873Z,14.27
2018-05-12T10:43:12.628Z,11.85
2018-05-12T10:45:39.654Z,9.50
2018-05-12T10:48:06.233Z,12.15
2018-05-12T10:50:33.157Z,11.50
2018-05-12T10:52:59.733Z,11.20
2018-05-12T10:55:26.305Z,10.82
2018-05-12T10:57:53.163Z,12.20
2018-05-12T11:00:19.798Z,12.17
2018-05-12T11:02:46.369Z,11.88
2018-05-12T11:05:13.895Z,12.65
2018-05-12T11:07:40.447Z,9.00
2018-05-12T11:10:07.137Z,10.05
2018-05-12T11:12:33.721Z,9.05
2018-05-12T11:15:00.293Z,9.83
2018-05-12T11:17:27.251Z,9.32
2018-05-12T11:19:53.816Z,7.90
2018-05-12T11:22:20.416Z,11.30
2018-05-12T11:24:47.005Z,8.20
2018-05-12T11:27:13.924Z,7.25
2018-05-12T11:29:40.497Z,8.32
2018-05-12T11:32:07.449Z,8.70
2018-05-12T11:34:34.407Z,8.23
2018-05-12T11:37:01.360Z,8.10
2018-05-12T11:39:27.911Z,8.67
2018-05-12T11:41:54.507Z,7.20
2018-05-12T11:44:21.117Z,6.60
2018-05-12T11:46:47.709Z,7.30
2018-05-12T11:49:14.293Z,7.15
2018-05-12T11:51:40.892Z,6.90
2018-05-12T11:54:07.495Z,7.00
2018-05-12T11:56:34.046Z,7.37
2018-05-12T11:59:00.659Z,8.40
2018-05-12T12:01:27.253Z,7.40
2018-05-12T12:03:54.174Z,6.53
2018-05-12T12:06:20.763Z,5.82
2018-05-12T12:08:47.309Z,5.90
2018-05-12T12:11:14.263Z,5.20
2018-05-12T12:13:41.207Z,7.33
2018-05-12T12:16:07.806Z,10.00
2018-05-12T12:18:34.380Z,5.87
2018-05-12T12:21:00.976Z,6.53
2018-05-12T12:23:27.543Z,8.13
2018-05-12T12:25:54.117Z,6.00
2018-05-12T12:28:20.665Z,5.75
2018-05-12T12:30:47.248Z,6.30
2018-05-12T12:33:14.165Z,6.20
2018-05-12T12:35:40.729Z,5.43
2018-05-12T12:38:07.328Z,6.30
2018-05-12T12:40:33.927Z,5.17
2018-05-12T12:43:00.473Z,5.60
2018-05-12T12:45:27.056Z,6.20
2018-05-12T12:47:53.966Z,5.65
2018-05-12T12:50:20.544Z,5.90
2018-05-12T12:52:47.159Z,6.40
2018-05-12T12:55:13.700Z,5.00
2018-05-12T12:57:40.300Z,6.68
2018-05-12T13:00:06.961Z,6.03
2018-05-12T13:02:33.612Z,7.25
2018-05-12T13:05:00.198Z,6.00
2018-05-12T13:07:26.757Z,5.72
2018-05-12T13:09:53.341Z,5.72
2018-05-12T13:12:20.276Z,4.78
2018-05-12T13:14:47.240Z,4.97
2018-05-12T13:17:14.185Z,5.12
2018-05-12T13:19:40.734Z,6.00
2018-05-12T13:22:07.371Z,6.00
2018-05-12T13:24:33.917Z,6.50
2018-05-12T13:27:00.570Z,5.28
2018-05-12T13:29:27.136Z,5.12
2018-05-12T13:31:53.714Z,4.70
2018-05-12T13:34:20.304Z,4.55
2018-05-12T13:36:46.941Z,4.70
2018-05-12T13:39:13.530Z,5.15
2018-05-12T13:41:40.452Z,5.00
2018-05-12T13:44:07.061Z,4.80
2018-05-12T13:46:33.669Z,4.90
2018-05-12T13:49:00.593Z,4.80
2018-05-12T13:51:27.220Z,3.90
2018-05-12T13:53:53.761Z,5.05
2018-05-12T13:56:20.356Z,3.55
2018-05-12T13:58:46.989Z,4.68
2018-05-12T14:01:13.537Z,4.50
2018-05-12T14:03:40.163Z,4.03
2018-05-12T14:06:06.732Z,5.00
2018-05-12T14:08:33.332Z,4.85
2018-05-12T14:11:00.298Z,4.25
2018-05-12T14:13:27.227Z,4.53
2018-05-12T14:15:53.829Z,4.05
2018-05-12T14:18:20.408Z,5.12
2018-05-12T14:20:46.993Z,4.50
2018-05-12T14:23:13.566Z,4.10
2018-05-12T14:25:40.113Z,4.53
2018-05-12T14:28:06.711Z,3.97
2018-05-12T14:30:33.290Z,4.60
2018-05-12T14:33:00.246Z,4.30
2018-05-12T14:35:26.829Z,4.22
2018-05-12T14:37:53.380Z,4.30
2018-05-12T14:40:19.991Z,3.42
2018-05-12T14:42:46.641Z,3.62
2018-05-12T14:45:13.215Z,4.00
2018-05-12T14:47:39.791Z,3.92
2018-05-12T14:50:06.376Z,4.00
2018-05-12T14:52:33.378Z,3.40
2018-05-12T14:54:59.931Z,3.50
2018-05-12T14:57:26.503Z,3.90
2018-05-12T14:59:53.080Z,3.30
2018-05-12T15:02:20.073Z,4.28
2018-05-12T15:04:47.128Z,3.58
2018-05-12T15:07:13.684Z,3.37
2018-05-12T15:09:40.272Z,3.70
2018-05-12T15:12:07.228Z,3.65
2018-05-12T15:14:33.776Z,3.42
2018-05-12T15:17:00.385Z,2.92
2018-05-12T15:19:26.940Z,3.15
2018-05-12T15:21:53.528Z,3.10
2018-05-12T15:24:20.541Z,3.20
2018-05-12T15:26:47.143Z,3.08
2018-05-12T15:29:14.148Z,3.05
2018-05-12T15:31:40.736Z,3.10
2018-05-12T15:34:07.676Z,3.40
2018-05-12T15:36:34.278Z,3.00
2018-05-12T15:39:00.816Z,3.10
2018-05-12T15:41:27.401Z,3.30
2018-05-12T15:43:54.013Z,3.20
2018-05-12T15:46:20.624Z,3.78
2018-05-12T15:48:47.224Z,3.40
2018-05-12T15:51:13.797Z,2.70
2018-05-12T15:53:40.328Z,3.30
2018-05-12T15:56:06.909Z,2.80
2018-05-12T15:58:34.743Z,3.30
2018-05-12T16:01:01.336Z,3.00
2018-05-12T16:03:27.960Z,2.67
2018-05-12T16:05:54.501Z,3.20
2018-05-12T16:08:21.080Z,3.08
2018-05-12T16:10:47.637Z,3.03
2018-05-12T16:13:14.208Z,2.80
2018-05-12T16:15:40.789Z,2.80
2018-05-12T16:18:07.337Z,3.00
2018-05-12T16:20:33.931Z,3.15
2018-05-12T16:23:00.848Z,2.80
2018-05-12T16:25:27.452Z,2.60
2018-05-12T16:27:54.085Z,2.67
2018-05-12T16:30:20.649Z,3.08
2018-05-12T16:32:47.256Z,3.10
2018-05-12T16:35:13.807Z,2.90
2018-05-12T16:37:40.832Z,2.65
2018-05-12T16:40:07.388Z,2.80
2018-05-12T16:42:33.971Z,3.03
2018-05-12T16:45:00.551Z,3.20
2018-05-12T16:47:27.160Z,3.00
2018-05-12T16:49:53.747Z,2.60
2018-05-12T16:52:20.329Z,2.70
2018-05-12T16:54:46.915Z,2.37
2018-05-12T16:57:13.881Z,2.60
2018-05-12T16:59:40.791Z,2.60
2018-05-12T17:02:07.385Z,2.60
2018-05-12T17:04:34.384Z,2.90
2018-05-12T17:07:00.971Z,3.22
2018-05-12T17:09:27.564Z,2.92
2018-05-12T17:11:54.127Z,2.50
2018-05-12T17:14:20.716Z,3.10
2018-05-12T17:16:47.284Z,2.75
2018-05-12T17:19:14.236Z,3.00
2018-05-12T17:21:40.824Z,3.20
2018-05-12T17:24:07.388Z,3.00
2018-05-12T17:26:33.964Z,3.53
2018-05-12T17:29:00.579Z,3.20
2018-05-12T17:31:27.168Z,3.20
2018-05-12T17:33:53.743Z,3.75
2018-05-12T17:36:20.386Z,3.80
2018-05-12T17:38:47.030Z,3.47
2018-05-12T17:41:13.652Z,3.40
2018-05-12T17:43:40.337Z,3.40
2018-05-12T17:46:07.140Z,3.30
2018-05-12T17:48:33.702Z,3.28
2018-05-12T17:51:01.389Z,3.03
2018-05-12T17:53:28.028Z,3.20
2018-05-12T17:55:54.620Z,3.20
2018-05-12T17:58:28.095Z,3.30
2018-05-12T18:00:54.748Z,3.00
2018-05-12T18:03:21.732Z,3.40
2018-05-12T18:05:48.385Z,3.20
2018-05-12T18:08:14.970Z,3.20
2018-05-12T18:10:41.509Z,3.35
2018-05-12T18:13:08.101Z,3.47
2018-05-12T18:15:35.102Z,3.20
2018-05-12T18:18:01.640Z,3.80
2018-05-12T18:20:28.239Z,3.90
2018-05-12T18:22:54.788Z,4.18
2018-05-12T18:25:21.391Z,4.15
2018-05-12T18:27:48.021Z,4.50
2018-05-12T18:30:14.572Z,4.85
2018-05-12T18:32:41.192Z,4.60
2018-05-12T18:35:07.770Z,4.50
2018-05-12T18:37:34.367Z,4.35
2018-05-12T18:40:00.957Z,3.90
2018-05-12T18:42:27.543Z,3.97
2018-05-12T18:44:54.132Z,3.65
2018-05-12T18:47:20.693Z,3.60
2018-05-12T18:49:47.640Z,3.70
2018-05-12T18:52:14.616Z,3.50
2018-05-12T18:54:41.192Z,3.30
2018-05-12T18:57:07.740Z,2.95
2018-05-12T18:59:34.331Z,3.35
2018-05-12T19:02:00.876Z,3.08
2018-05-12T19:04:27.872Z,3.03
2018-05-12T19:06:54.463Z,3.20
2018-05-12T19:09:21.029Z,2.33
2018-05-12T19:11:47.635Z,2.90
2018-05-12T19:14:14.190Z,3.30
2018-05-12T19:16:40.758Z,2.50
2018-05-12T19:19:07.352Z,2.95
2018-05-12T19:21:33.904Z,2.80
2018-05-12T19:24:00.484Z,3.10
2018-05-12T19:26:27.028Z,3.72
2018-05-12T19:28:53.612Z,3.13
2018-05-12T19:31:20.172Z,2.58
2018-05-12T19:33:47.121Z,2.90
2018-05-12T19:36:14.129Z,3.62
2018-05-12T19:38:40.692Z,4.45
2018-05-12T19:41:07.292Z,5.07
2018-05-12T19:43:34.228Z,4.25
2018-05-12T19:46:01.207Z,3.20
2018-05-12T19:48:27.806Z,3.20
2018-05-12T19:50:54.343Z,2.80
2018-05-12T19:53:20.948Z,2.75
2018-05-12T19:55:47.520Z,2.75
2018-05-12T19:58:14.084Z,3.20
2018-05-12T20:00:40.636Z,3.00
2018-05-12T20:03:07.232Z,3.12
2018-05-12T20:05:41.200Z,3.30
2018-05-12T20:08:07.788Z,3.50
2018-05-12T20:10:34.386Z,3.17
2018-05-12T20:13:00.932Z,3.12
2018-05-12T20:15:27.518Z,3.12
2018-05-12T20:17:54.064Z,3.37
2018-05-12T20:20:20.652Z,3.40
2018-05-12T20:22:47.240Z,3.72
2018-05-12T20:25:13.788Z,3.28
2018-05-12T20:27:40.373Z,3.20
2018-05-12T20:30:07.300Z,3.30
2018-05-12T20:32:33.905Z,3.47
2018-05-12T20:35:00.517Z,3.50
2018-05-12T20:37:27.255Z,4.07
2018-05-12T20:39:53.844Z,3.37
2018-05-12T20:42:20.418Z,3.70
2018-05-12T20:44:47.277Z,3.40
2018-05-12T20:47:14.489Z,3.70
2018-05-12T20:49:41.736Z,3.70
2018-05-12T20:52:08.315Z,4.00
2018-05-12T20:54:35.232Z,3.20
2018-05-12T20:57:01.809Z,3.60
2018-05-12T20:59:28.754Z,3.60
2018-05-12T21:01:55.292Z,4.07
2018-05-12T21:04:21.917Z,3.75
2018-05-12T21:06:48.461Z,3.45
2018-05-12T21:09:15.046Z,3.50
2018-05-12T21:11:41.628Z,3.90
2018-05-12T21:14:08.170Z,3.80
2018-05-12T21:16:34.769Z,3.65
2018-05-12T21:19:01.319Z,3.90
2018-05-12T21:21:30.029Z,3.70
2018-05-12T21:23:57.952Z,3.77
2018-05-12T21:26:24.725Z,3.60
2018-05-12T21:28:51.344Z,3.67
2018-05-12T21:31:17.910Z,4.00
2018-05-12T21:33:44.517Z,3.42
2018-05-12T21:36:11.456Z,3.67
2018-05-12T21:38:38.002Z,3.40
2018-05-12T21:41:04.593Z,3.70
2018-05-12T21:43:31.137Z,3.37
2018-05-12T21:45:57.754Z,3.00
2018-05-12T21:48:24.706Z,3.05
2018-05-12T21:50:51.274Z,3.60
2018-05-12T21:53:18.246Z,4.32
2018-05-12T21:55:44.802Z,3.50
2018-05-12T21:58:11.416Z,3.53
2018-05-12T22:00:38.895Z,3.30
2018-05-12T22:03:05.803Z,3.90
2018-05-12T22:05:32.440Z,3.22
2018-05-12T22:07:59.026Z,3.40
2018-05-12T22:10:25.586Z,3.50
2018-05-12T22:12:52.554Z,3.50
2018-05-12T22:15:19.496Z,3.70
2018-05-12T22:17:46.424Z,3.85
2018-05-12T22:20:13.020Z,4.40
2018-05-12T22:22:39.560Z,4.45
2018-05-12T22:25:06.508Z,3.67
2018-05-12T22:27:33.544Z,4.40
2018-05-12T22:30:00.040Z,3.85
2018-05-12T22:32:26.625Z,3.58
2018-05-12T22:34:53.174Z,4.20
2018-05-12T22:37:19.766Z,3.47
2018-05-12T22:39:46.411Z,4.10
2018-05-12T22:42:12.930Z,4.00
2018-05-12T22:44:39.504Z,4.10
2018-05-12T22:47:06.415Z,4.00
2018-05-12T22:49:32.976Z,4.25
2018-05-12T22:51:59.569Z,4.10
2018-05-12T22:54:26.108Z,4.28
2018-05-12T22:56:53.065Z,3.70
2018-05-12T22:59:19.985Z,3.62
2018-05-12T23:01:46.596Z,4.00
2018-05-12T23:04:13.188Z,4.37
2018-05-12T23:06:39.796Z,3.90
2018-05-12T23:09:06.380Z,3.92
2018-05-12T23:11:32.924Z,3.90
2018-05-12T23:13:59.501Z,4.18
2018-05-12T23:16:26.417Z,4.20
2018-05-12T23:18:52.993Z,4.47
2018-05-12T23:21:19.580Z,4.65
2018-05-12T23:23:46.120Z,4.20
2018-05-12T23:26:12.700Z,4.20
2018-05-12T23:28:39.303Z,5.10
2018-05-12T23:31:06.248Z,5.70
2018-05-12T23:33:33.281Z,5.35
2018-05-12T23:35:59.849Z,5.32
2018-05-12T23:38:26.438Z,5.80
2018-05-12T23:40:52.976Z,6.28
2018-05-12T23:43:19.632Z,5.60
2018-05-12T23:45:46.212Z,5.07
2018-05-12T23:48:12.761Z,4.97
2018-05-12T23:50:39.336Z,5.03
2018-05-12T23:53:06.259Z,5.10
2018-05-12T23:55:32.841Z,4.70
2018-05-12T23:57:59.792Z,5.00
